Flight Track Log - Related Links

Times and Time Zones

All times are in EDT time to prevent confusion due to time zone crossing. See the SWA2874 flight status page for this flight to view local times or setup timezone preferences in your user account.

Time Position Orientation Groundspeed Altitude Reporting Facility
EDT Latitude Longitude Course Direction KTS MPH feet Rate Location/Type
Fri 02:42:13 PM 29.5919 -95.2728 161° South 191 220 2,800  Level Houston Center
Fri 02:43:14 PM 29.5406 -95.2406 151° Southeast 232 267 4,900 2,126 Climbing Houston Center
Fri 02:44:20 PM 29.4822 -95.2033 151° Southeast 246 283 7,300 1,875 Climbing Houston Center
Fri 02:45:22 PM 29.4350 -95.1214 123° Southeast 297 342 8,900 2,032 Climbing Houston Center
Fri 02:46:24 PM 29.4497 -95.0253 80° East 310 357 11,500 2,571 Climbing Houston Center
Fri 02:47:28 PM 29.4606 -94.9175 83° East 341 392 14,300 2,661 Climbing Houston Center
Fri 02:48:28 PM 29.5028 -94.8075 66° East 381 438 17,000 2,878 Climbing Houston Center
Fri 02:49:31 PM 29.5656 -94.6725 62° Northeast 402 463 20,200 2,784 Climbing Houston Center
Fri 02:50:33 PM 29.6206 -94.5569 61° Northeast 415 478 22,800 2,177 Climbing Houston Center
Fri 02:51:35 PM 29.6664 -94.4247 68° East 453 521 24,700 1,790 Climbing Houston Center
Fri 02:52:37 PM 29.6672 -94.2764 90° East 468 539 26,500 1,452 Climbing Houston Center
Fri 02:53:39 PM 29.6731 -94.1081 88° East 480 552 27,700 1,210 Climbing Houston Center
Fri 02:54:41 PM 29.6978 -93.9572 79° East 485 558 29,000 629 Climbing Houston Center
Fri 02:55:43 PM 29.7208 -93.8031 80° East 490 564 29,000  Level Houston Center
Fri 02:56:45 PM 29.7450 -93.6500 80° East 491 565 29,000  Level Houston Center
Fri 02:57:48 PM 29.7711 -93.4653 81° East 492 566 29,000  Level Houston Center
Fri 02:58:50 PM 29.7939 -93.3108 80° East 493 567 29,000  Level Houston Center
Fri 02:59:52 PM 29.8156 -93.1586 81° East 489 563 29,000  Level Houston Center
Fri 03:00:54 PM 29.8372 -93.0053 81° East 490 564 29,000  Level Houston Center
Fri 03:01:56 PM 29.8600 -92.8500 80° East 494 568 29,000  Level Houston Center
Fri 03:02:58 PM 29.8867 -92.6650 81° East 493 567 29,000  Level Houston Center
Fri 03:04:00 PM 29.9075 -92.5100 81° East 492 566 29,000  Level Houston Center
Fri 03:05:02 PM 29.9300 -92.3533 81° East 496 571 29,000  Level Houston Center
Fri 03:06:05 PM 29.9522 -92.1956 81° East 499 574 29,000 -192 Level Houston Center
Fri 03:07:07 PM 29.9744 -92.0383 81° East 500 575 28,600 -1,839 Descending Houston Center
Fri 03:08:09 PM 29.9983 -91.8525 82° East 493 567 25,200 -3,000 Descending Houston Center
Fri 03:09:11 PM 30.0197 -91.7003 81° East 483 556 22,400 -2,565 Descending Houston Center
Fri 03:10:13 PM 30.0392 -91.5589 81° East 464 534 19,900 -2,350 Descending Houston Center
Fri 03:11:11 PM 30.0564 -91.4178 82° East 419 482 17,700 -2,226 Descending Houston Center
Fri 03:12:17 PM 30.0736 -91.2983 81° East 412 474 15,300 -2,605 Descending Houston Center
Fri 03:13:20 PM 30.0853 -91.1739 84° East 397 457 12,100 -2,115 Descending Houston Center
Fri 03:14:19 PM 30.0747 -91.0331 95° East 360 414 11,000 -919 Descending Houston Center
Fri 03:15:24 PM 30.0728 -90.9328 91° East 325 374 10,200 -1,087 Descending Houston Center
Fri 03:16:26 PM 30.0703 -90.8381 92° East 307 353 8,700 -1,452 Descending Houston Center
Fri 03:17:28 PM 30.0650 -90.7444 94° East 299 344 7,200 -1,452 Descending Houston Center
Fri 03:18:30 PM 30.0622 -90.6525 92° East 293 337 5,700 -1,500 Descending Houston Center
Fri 03:19:32 PM 30.0572 -90.5433 93° East 289 333 4,100 -1,258 Descending Houston Center
Fri 03:20:34 PM 30.0417 -90.4625 103° East 271 312 3,100 -1,048 Descending Houston Center
Fri 03:21:38 PM 30.0219 -90.3864 107° East 210 242 1,900 -1,008 Descending Houston Center
Fri 03:22:39 PM 30.0100 -90.3367 105° East 149 171 1,000 -843 Descending Houston Center
Fri 03:23:39 PM 29.9983 -90.2961 108° East 125 144 200 -800 Descending Houston Center
Fri 03:25:00 PM 29.9934 -90.2580 101° East  Level Estimated
Fri 03:32:00 PM 29.9934 -90.2580 101° East  Level Estimated
Fri 03:33:00 PM 29.9934 -90.2580 101° East  Level Estimated
Fri 03:34:00 PM 29.9934 -90.2580 101° East  Level Estimated

Login

Don't have an account? Register now (free) for customized features, flight alerts, and more!